Time;durP1;ratioP1;P1;durP2;ratioP2;P2;SDS_P1;SDS_P2;PMS_P1;PMS_P2;Temp;Humidity;BMP_temperature;BMP_pressure;BME280_temperature;BME280_humidity;BME280_pressure;Samples;Min_cycle;Max_cycle;Signal;HPM_P1;HPM_P2
2021/07/14 00:02:15;;;;;;;10.55;8.55;;;;;;;22.25;60.15;101295.69;4977666;28;20496;-71
2021/07/14 00:04:40;;;;;;;8.43;7.63;;;;;;;22.25;60.41;101309.72;4977654;28;20121;-71
2021/07/14 00:07:06;;;;;;;8.48;7.68;;;;;;;22.24;60.02;101302.72;4977604;28;20038;-71
2021/07/14 00:09:32;;;;;;;8.23;7.20;;;;;;;22.23;60.20;101306.22;4977648;28;20041;-71
2021/07/14 00:12:00;;;;;;;8.40;7.57;;;;;;;22.25;60.18;101316.75;4977632;28;20432;-71
2021/07/14 00:14:46;;;;;;;6.90;6.20;;;;;;;22.24;60.25;101310.63;4977530;28;20026;-70
2021/07/14 00:22:25;;;;;;;9.68;7.80;;;;;;;22.24;60.29;101299.22;4995238;28;20044;-70
2021/07/14 00:24:52;;;;;;;9.98;8.63;;;;;;;22.20;60.31;101298.38;5000747;28;20049;-70
2021/07/14 00:27:19;;;;;;;7.25;6.55;;;;;;;22.23;60.35;101295.69;4996865;28;20026;-73
2021/07/14 00:29:54;;;;;;;10.13;7.45;;;;;;;22.25;60.14;101293.91;5014286;28;20099;-73
2021/07/14 00:32:19;;;;;;;9.20;8.27;;;;;;;22.25;60.02;101291.28;4996741;28;20034;-71
2021/07/14 00:34:46;;;;;;;7.65;6.93;;;;;;;22.29;60.18;101300.91;4996649;28;20387;-73
2021/07/14 00:37:12;;;;;;;11.25;7.32;;;;;;;22.25;59.88;101298.31;5014249;28;20033;-73
2021/07/14 00:39:38;;;;;;;10.93;8.13;;;;;;;22.27;59.85;101307.06;5014224;28;20029;-72
2021/07/14 00:42:06;;;;;;;10.02;7.57;;;;;;;22.27;60.10;101312.34;5014555;28;20109;-72
2021/07/14 00:44:32;;;;;;;10.10;8.10;;;;;;;22.30;59.90;101317.59;4996510;28;20026;-73
2021/07/14 00:47:00;;;;;;;8.43;7.30;;;;;;;22.31;60.10;101319.31;4997279;28;20025;-73
2021/07/14 00:49:26;;;;;;;8.75;7.80;;;;;;;22.31;60.00;101322.84;5016586;28;20026;-70
2021/07/14 00:51:52;;;;;;;8.23;6.90;;;;;;;22.32;60.04;101329.84;4999018;28;20026;-71
2021/07/14 00:54:17;;;;;;;8.50;7.57;;;;;;;22.28;60.30;101330.78;5014701;28;20030;-69
2021/07/14 00:56:45;;;;;;;9.23;7.90;;;;;;;22.31;60.17;101324.59;4997003;28;20021;-70
2021/07/14 00:59:10;;;;;;;9.50;8.38;;;;;;;22.32;60.14;101327.22;4996613;28;20049;-74
2021/07/14 01:01:35;;;;;;;9.32;8.25;;;;;;;22.32;60.26;101321.06;4996146;28;20065;-72
2021/07/14 01:04:27;;;;;;;8.70;7.70;;;;;;;22.31;60.22;101316.69;4996371;28;20037;-73
2021/07/14 01:07:15;;;;;;;9.73;6.72;;;;;;;22.31;60.13;101320.19;5013979;28;20024;-73
2021/07/14 01:09:47;;;;;;;8.07;7.00;;;;;;;22.31;60.16;101319.31;5013429;28;20030;-72
2021/07/14 01:12:19;;;;;;;8.95;7.60;;;;;;;22.31;60.04;101314.06;5013017;28;20052;-72
2021/07/14 01:14:56;;;;;;;8.77;6.97;;;;;;;22.31;60.17;101319.31;4996031;28;20025;-73
2021/07/14 01:17:23;;;;;;;8.00;7.20;;;;;;;22.29;60.04;101314.06;4996110;28;20056;-71
2021/07/14 01:20:09;;;;;;;8.40;7.05;;;;;;;22.31;60.26;101311.44;5013788;28;20037;-72
2021/07/14 01:22:49;;;;;;;9.07;8.13;;;;;;;22.27;60.11;101301.81;4996055;28;20072;-73
2021/07/14 01:25:29;;;;;;;9.25;7.40;;;;;;;22.31;60.23;101304.38;4995904;28;20431;-72
2021/07/14 01:27:59;;;;;;;7.85;7.10;;;;;;;22.31;59.72;101306.16;5013605;28;20088;-74
2021/07/14 01:30:25;;;;;;;8.18;7.20;;;;;;;22.30;60.15;101305.28;4996100;28;20026;-75
2021/07/14 01:32:53;;;;;;;8.88;6.75;;;;;;;22.30;60.00;101309.69;4995969;28;20033;-75
2021/07/14 01:35:25;;;;;;;9.05;7.70;;;;;;;22.32;60.20;101308.78;4996211;28;20025;-75
2021/07/14 01:37:52;;;;;;;13.32;8.15;;;;;;;22.31;60.02;101307.03;4996039;28;20050;-74
2021/07/14 01:40:21;;;;;;;9.50;7.00;;;;;;;22.34;60.13;101308.72;5013578;28;20038;-76
2021/07/14 01:42:55;;;;;;;8.02;7.22;;;;;;;22.31;60.22;101299.13;4996360;28;20452;-75
2021/07/14 01:45:21;;;;;;;10.10;7.03;;;;;;;22.33;60.20;101313.13;5014807;28;20506;-76
2021/07/14 01:47:49;;;;;;;8.50;7.70;;;;;;;22.33;60.12;101309.66;4996678;28;20065;-76
2021/07/14 01:50:17;;;;;;;9.88;7.63;;;;;;;22.34;60.17;101314.88;5013867;28;20372;-75
2021/07/14 01:52:43;;;;;;;7.90;7.10;;;;;;;22.33;60.19;101313.13;4998903;28;20054;-74
2021/07/14 01:55:10;;;;;;;7.60;6.90;;;;;;;22.33;60.16;101307.00;4999245;28;20037;-75
2021/07/14 01:57:37;;;;;;;8.38;7.35;;;;;;;22.32;60.15;101302.63;4981101;28;20033;-74
2021/07/14 02:00:09;;;;;;;7.80;6.82;;;;;;;22.31;60.08;101303.53;4996616;28;20030;-74
2021/07/14 02:02:38;;;;;;;9.40;7.18;;;;;;;22.34;60.22;101308.72;4996401;28;20061;-74
2021/07/14 02:05:05;;;;;;;9.70;7.10;;;;;;;22.30;60.08;101304.41;4996149;28;20057;-74
2021/07/14 02:07:34;;;;;;;7.80;6.78;;;;;;;22.35;60.02;101313.09;4996113;28;20042;-73
2021/07/14 02:09:59;;;;;;;9.98;7.50;;;;;;;22.32;60.17;101308.78;5013399;28;20045;-73
2021/07/14 02:12:29;;;;;;;10.18;7.85;;;;;;;22.33;60.01;101318.38;4995957;28;20072;-73
2021/07/14 02:15:00;;;;;;;8.38;6.97;;;;;;;22.34;60.19;101314.88;5013478;28;20022;-76
2021/07/14 02:17:28;;;;;;;9.15;7.18;;;;;;;22.32;60.03;101308.78;4995821;28;20117;-75
2021/07/14 02:20:07;;;;;;;8.63;7.60;;;;;;;22.34;60.20;101308.72;5013166;28;20542;-74
2021/07/14 02:22:33;;;;;;;9.57;7.85;;;;;;;22.34;60.07;101306.97;5014602;28;20057;-74
2021/07/14 02:24:59;;;;;;;8.35;6.82;;;;;;;22.34;60.14;101300.81;5016926;28;20499;-75
2021/07/14 02:27:24;;;;;;;8.02;7.30;;;;;;;22.34;60.07;101304.31;4999410;28;20083;-75
2021/07/14 02:29:50;;;;;;;9.35;7.82;;;;;;;22.32;60.19;101298.22;4999286;28;20022;-75
2021/07/14 02:32:20;;;;;;;9.95;7.55;;;;;;;22.34;60.14;101290.28;4983570;28;20108;-74
2021/07/14 02:34:47;;;;;;;6.63;5.97;;;;;;;22.33;60.10;101284.13;5017532;28;20099;-75
2021/07/14 02:37:23;;;;;;;8.77;7.80;;;;;;;22.34;60.13;101279.75;5016815;28;20026;-74
2021/07/14 02:39:52;;;;;;;9.20;6.32;;;;;;;22.33;60.04;101275.38;4999371;28;20392;-75
2021/07/14 02:42:27;;;;;;;7.68;6.88;;;;;;;22.34;60.17;101274.47;5017206;28;20033;-74
2021/07/14 02:44:53;;;;;;;8.52;6.88;;;;;;;22.33;60.09;101272.75;5000153;28;20040;-76
2021/07/14 02:47:20;;;;;;;7.55;6.82;;;;;;;22.31;60.23;101261.38;5016604;28;20065;-75
2021/07/14 02:49:47;;;;;;;10.85;7.18;;;;;;;22.30;60.00;101264.88;5016488;28;20030;-76
2021/07/14 02:52:14;;;;;;;8.95;7.03;;;;;;;22.30;60.11;101264.88;5016194;28;20018;-76
2021/07/14 02:54:41;;;;;;;8.40;6.90;;;;;;;22.32;60.18;101268.38;4998638;28;20026;-75
2021/07/14 02:57:10;;;;;;;8.48;7.57;;;;;;;22.31;60.04;101266.63;4998475;28;20080;-75
2021/07/14 02:59:38;;;;;;;9.65;7.90;;;;;;;22.32;60.07;101271.00;5016048;28;20097;-75
2021/07/14 03:02:06;;;;;;;8.77;7.40;;;;;;;22.32;60.30;101266.63;5016316;28;20026;-75
2021/07/14 03:04:40;;;;;;;8.70;7.13;;;;;;;22.29;60.17;101264.00;4998346;28;20088;-74
2021/07/14 03:07:09;;;;;;;7.30;6.60;;;;;;;22.30;60.34;101265.75;4998416;28;20040;-75
2021/07/14 03:09:41;;;;;;;6.82;5.93;;;;;;;22.30;60.30;101268.38;4982691;28;20029;-74
2021/07/14 03:12:10;;;;;;;8.48;6.85;;;;;;;22.30;60.10;101259.63;4998299;28;20022;-75
2021/07/14 03:14:38;;;;;;;7.30;6.40;;;;;;;22.29;60.32;101257.88;5015754;28;20026;-75
2021/07/14 03:17:05;;;;;;;7.88;6.78;;;;;;;22.27;60.42;101254.38;4998085;28;20033;-75
2021/07/14 03:19:33;;;;;;;8.23;7.28;;;;;;;22.25;60.35;101261.44;4981754;28;20034;-75
2021/07/14 03:21:58;;;;;;;7.38;6.68;;;;;;;22.23;60.39;101252.66;5015669;28;20026;-75
2021/07/14 03:24:25;;;;;;;7.07;6.38;;;;;;;22.26;60.39;101269.31;4965421;28;20080;-75
2021/07/14 03:26:50;;;;;;;8.18;6.55;;;;;;;22.24;60.48;101259.69;4981839;28;20045;-75
2021/07/14 03:29:17;;;;;;;8.85;7.28;;;;;;;22.24;60.46;101263.19;5015437;28;20030;-75
2021/07/14 03:31:43;;;;;;;8.38;7.57;;;;;;;22.27;60.42;101267.56;5015427;28;20101;-75
2021/07/14 03:34:09;;;;;;;10.07;7.35;;;;;;;22.27;60.23;101260.53;4997152;28;20519;-75
2021/07/14 03:36:35;;;;;;;8.98;8.07;;;;;;;22.23;60.28;101261.44;5015333;28;20048;-75
2021/07/14 03:39:02;;;;;;;9.52;8.55;;;;;;;22.22;60.40;101256.19;5015228;28;20053;-74
2021/07/14 03:41:28;;;;;;;7.10;6.40;;;;;;;22.23;60.29;101247.41;5015083;28;20376;-75
2021/07/14 03:43:56;;;;;;;7.60;6.15;;;;;;;22.23;60.16;101252.66;4997880;28;20029;-75
2021/07/14 03:46:23;;;;;;;9.68;8.15;;;;;;;22.25;60.32;101251.75;4981826;28;20034;-74
2021/07/14 03:48:52;;;;;;;9.93;7.70;;;;;;;22.23;60.17;101253.53;5015016;28;20030;-75
2021/07/14 03:51:18;;;;;;;9.40;7.88;;;;;;;22.21;60.29;101252.69;5014957;28;20034;-75
2021/07/14 03:53:44;;;;;;;7.35;6.32;;;;;;;22.26;60.24;101268.44;4981367;28;20034;-75
2021/07/14 03:56:10;;;;;;;9.75;8.32;;;;;;;22.26;60.12;101264.06;4981616;28;20045;-74
2021/07/14 03:58:38;;;;;;;9.05;7.85;;;;;;;22.25;60.26;101262.31;4997309;28;20472;-75
2021/07/14 04:01:04;;;;;;;8.07;7.25;;;;;;;22.25;60.21;101264.06;4997219;28;20033;-75
2021/07/14 04:03:31;;;;;;;9.90;8.32;;;;;;;22.24;60.38;101265.81;5014874;28;20037;-75
2021/07/14 04:06:02;;;;;;;8.90;7.97;;;;;;;22.24;60.06;101259.69;4997683;28;20528;-75
2021/07/14 04:08:33;;;;;;;8.73;7.45;;;;;;;22.24;60.23;101260.56;4997275;28;20124;-74
2021/07/14 04:10:58;;;;;;;8.10;7.30;;;;;;;22.20;60.13;101253.59;5014910;28;20026;-75
2021/07/14 04:13:24;;;;;;;8.93;8.02;;;;;;;22.24;60.29;101254.41;4981024;28;20022;-75
2021/07/14 04:15:49;;;;;;;8.30;7.03;;;;;;;22.24;60.27;101249.16;5015699;28;20036;-75
2021/07/14 04:18:14;;;;;;;9.07;8.27;;;;;;;22.20;60.05;101235.13;4998711;28;20508;-75
2021/07/14 04:20:41;;;;;;;9.52;8.52;;;;;;;22.22;60.11;101235.13;5000328;28;20392;-75
2021/07/14 04:23:07;;;;;;;9.38;8.45;;;;;;;22.21;60.22;101226.34;4966955;28;20029;-75
2021/07/14 04:25:34;;;;;;;8.98;7.57;;;;;;;22.23;60.22;101240.38;4981283;28;20086;-74
2021/07/14 04:27:59;;;;;;;11.95;8.55;;;;;;;22.20;60.37;101235.13;5014741;28;20540;-77
2021/07/14 04:30:25;;;;;;;9.13;7.43;;;;;;;22.18;60.39;101231.69;5014429;28;20029;-75
2021/07/14 04:32:50;;;;;;;12.60;9.57;;;;;;;22.16;60.16;101232.59;5014435;28;20068;-74
2021/07/14 04:35:15;;;;;;;12.00;9.35;;;;;;;22.16;59.90;101236.09;4996710;28;20053;-75
2021/07/14 04:37:42;;;;;;;14.45;10.15;;;;;;;22.16;59.82;101244.00;4980517;28;20380;-75
2021/07/14 04:40:08;;;;;;;11.60;9.90;;;;;;;22.14;59.89;101237.00;4996868;28;20037;-75
2021/07/14 04:42:33;;;;;;;12.70;10.77;;;;;;;22.13;59.89;101245.78;5013998;28;20480;-74
2021/07/14 04:44:59;;;;;;;11.27;10.02;;;;;;;22.09;60.10;101237.94;4980101;28;20116;-74
2021/07/14 04:47:24;;;;;;;11.48;9.90;;;;;;;22.11;59.87;101245.81;4963454;28;20428;-75
2021/07/14 04:49:50;;;;;;;14.73;11.35;;;;;;;22.11;59.79;101248.44;4980238;28;20365;-75
2021/07/14 04:52:15;;;;;;;12.20;10.93;;;;;;;22.09;59.91;101239.69;5013781;28;20030;-74
2021/07/14 04:54:41;;;;;;;12.18;10.50;;;;;;;22.09;59.87;101244.97;5013873;28;20037;-74
2021/07/14 04:57:08;;;;;;;16.08;13.38;;;;;;;22.02;59.99;101248.59;4980658;28;20480;-75
2021/07/14 04:59:35;;;;;;;13.85;12.30;;;;;;;21.91;60.43;101250.44;4996603;28;20046;-74
2021/07/14 05:02:05;;;;;;;16.08;13.13;;;;;;;21.83;60.49;101245.25;5013873;28;20025;-74
2021/07/14 05:04:34;;;;;;;15.77;13.40;;;;;;;21.84;60.49;101252.28;4996884;28;20383;-74
2021/07/14 05:07:01;;;;;;;14.82;13.15;;;;;;;21.86;60.77;101249.63;4996244;28;20033;-75
2021/07/14 05:09:26;;;;;;;19.33;13.90;;;;;;;21.90;60.39;101252.22;4996123;28;20133;-75
2021/07/14 05:11:52;;;;;;;18.53;14.47;;;;;;;21.94;60.22;101258.31;4996463;28;20124;-75
2021/07/14 05:14:17;;;;;;;19.48;16.48;;;;;;;21.59;60.76;101258.72;5013681;28;20061;-75
2021/07/14 05:16:43;;;;;;;20.60;16.50;;;;;;;21.42;61.10;101261.56;4996502;28;20100;-72
2021/07/14 05:19:09;;;;;;;22.85;15.40;;;;;;;21.12;62.10;101256.56;4996351;28;20026;-75
2021/07/14 05:21:34;;;;;;;20.27;15.93;;;;;;;21.32;61.69;101262.50;5013821;28;20532;-76
2021/07/14 05:24:00;;;;;;;22.25;14.52;;;;;;;21.45;61.46;101269.38;5013782;28;20117;-72
2021/07/14 05:26:26;;;;;;;24.20;15.35;;;;;;;21.51;61.15;101266.72;4996082;28;20120;-72
2021/07/14 05:28:51;;;;;;;19.70;14.43;;;;;;;21.40;61.46;101279.13;4996160;28;20416;-71
2021/07/14 05:31:17;;;;;;;19.15;15.75;;;;;;;21.28;61.34;101290.63;5013544;28;20076;-72
2021/07/14 05:33:43;;;;;;;16.92;14.88;;;;;;;21.37;61.32;101287.91;5013511;28;20025;-71
2021/07/14 05:36:11;;;;;;;17.02;13.98;;;;;;;21.37;61.14;101285.28;5013489;28;20072;-71
2021/07/14 05:38:37;;;;;;;21.48;15.13;;;;;;;21.41;61.11;101282.63;5013462;28;20026;-71
2021/07/14 05:41:03;;;;;;;15.63;13.43;;;;;;;21.38;61.26;101296.66;4979728;28;20089;-71
2021/07/14 05:43:28;;;;;;;19.40;15.43;;;;;;;21.38;61.08;101309.81;4996062;28;20022;-71
2021/07/14 05:45:55;;;;;;;18.52;13.10;;;;;;;21.26;61.17;101302.91;4996053;28;20026;-71
2021/07/14 05:48:21;;;;;;;16.35;13.38;;;;;;;21.33;61.06;101301.09;4995980;28;20028;-71
2021/07/14 05:50:46;;;;;;;16.23;14.15;;;;;;;21.42;60.93;101287.00;4964009;28;20034;-71
2021/07/14 05:53:12;;;;;;;17.73;13.55;;;;;;;21.46;60.57;101288.69;4996420;28;20414;-71
2021/07/14 05:55:37;;;;;;;15.00;13.00;;;;;;;21.48;60.67;101281.66;4996006;28;20036;-71
2021/07/14 05:58:03;;;;;;;18.58;12.73;;;;;;;21.49;60.57;101294.78;4998264;28;20030;-72
2021/07/14 06:00:29;;;;;;;16.70;12.48;;;;;;;21.46;60.88;101305.34;5017286;28;20028;-71
2021/07/14 06:02:55;;;;;;;17.00;13.18;;;;;;;21.35;61.18;101307.22;5017808;28;20057;-76
2021/07/14 06:05:21;;;;;;;20.98;12.85;;;;;;;21.38;61.00;101308.06;5017369;28;20060;-76
2021/07/14 06:07:46;;;;;;;17.08;12.48;;;;;;;21.54;60.73;101303.53;4999737;28;20480;-76
2021/07/14 06:10:12;;;;;;;15.35;12.48;;;;;;;21.59;60.50;101299.06;5017401;28;20073;-76
2021/07/14 06:12:37;;;;;;;19.05;14.15;;;;;;;21.66;60.38;101295.50;5017218;28;20034;-74
2021/07/14 06:15:04;;;;;;;15.05;11.93;;;;;;;21.70;60.30;101304.22;4999496;28;20034;-73
2021/07/14 06:17:29;;;;;;;16.20;12.27;;;;;;;21.69;60.25;101318.25;4983468;28;20414;-73
2021/07/14 06:19:54;;;;;;;14.35;12.82;;;;;;;21.70;60.26;101309.47;4999368;28;20030;-69
2021/07/14 06:22:20;;;;;;;18.40;13.68;;;;;;;21.75;60.48;101313.81;4983434;28;20092;-70
2021/07/14 06:24:45;;;;;;;20.80;13.10;;;;;;;21.79;60.34;101308.53;5016590;28;20050;-69
2021/07/14 06:27:11;;;;;;;18.63;12.75;;;;;;;21.82;60.17;101306.69;4983012;28;20423;-69
2021/07/14 06:29:37;;;;;;;20.27;13.55;;;;;;;21.84;60.10;101301.44;4999117;28;20026;-69
2021/07/14 06:32:03;;;;;;;18.10;13.55;;;;;;;21.86;59.92;101310.19;4999037;28;20483;-69
2021/07/14 06:34:29;;;;;;;15.38;12.60;;;;;;;21.85;59.54;101298.78;4999039;28;20029;-69
2021/07/14 06:36:54;;;;;;;18.63;12.85;;;;;;;21.85;59.79;101298.78;4999112;28;20037;-69
2021/07/14 06:39:20;;;;;;;14.68;12.10;;;;;;;21.85;60.10;101297.91;4982806;28;20037;-68
2021/07/14 06:41:45;;;;;;;15.93;12.30;;;;;;;21.86;59.79;101297.88;4998947;28;20052;-69
2021/07/14 06:44:11;;;;;;;17.48;13.23;;;;;;;21.88;60.03;101305.78;4998912;28;20030;-69
2021/07/14 06:46:37;;;;;;;13.63;12.18;;;;;;;21.89;59.71;101312.78;4998879;28;20547;-69
2021/07/14 06:49:03;;;;;;;14.90;12.40;;;;;;;21.87;59.95;101312.81;4999072;28;20120;-71
2021/07/14 06:51:28;;;;;;;17.58;14.45;;;;;;;21.88;59.91;101313.69;5016385;28;20026;-69
2021/07/14 06:53:54;;;;;;;21.00;14.25;;;;;;;21.88;59.79;101313.69;4998725;28;20169;-69
2021/07/14 06:56:19;;;;;;;16.65;13.35;;;;;;;21.92;59.92;101326.81;4982557;28;20038;-69
2021/07/14 06:58:45;;;;;;;15.15;13.45;;;;;;;21.92;59.92;101324.16;4998638;28;20022;-69
2021/07/14 07:01:11;;;;;;;18.83;13.02;;;;;;;21.92;59.78;101325.94;5016059;28;20496;-69
2021/07/14 07:03:37;;;;;;;15.73;14.00;;;;;;;21.91;60.08;101335.59;5016041;28;20424;-69
2021/07/14 07:06:04;;;;;;;15.70;13.27;;;;;;;21.91;59.99;101335.59;5016036;28;20037;-69
2021/07/14 07:08:31;;;;;;;14.68;12.73;;;;;;;21.93;59.85;101339.09;5015036;28;20038;-69
2021/07/14 07:10:57;;;;;;;16.35;13.73;;;;;;;21.95;60.02;101341.66;5015700;28;20385;-69
2021/07/14 07:13:22;;;;;;;17.08;13.68;;;;;;;21.91;59.94;101334.72;4998345;28;20033;-69
2021/07/14 07:15:48;;;;;;;16.80;13.55;;;;;;;21.95;59.97;101341.66;5015774;28;20030;-69
2021/07/14 07:18:14;;;;;;;15.57;13.10;;;;;;;21.91;59.82;101327.69;4998216;28;20068;-69
2021/07/14 07:20:42;;;;;;;19.23;13.30;;;;;;;21.91;59.88;101335.59;4981697;28;20054;-69
2021/07/14 07:23:11;;;;;;;13.73;12.30;;;;;;;21.94;59.88;101343.44;4998439;28;20034;-69
2021/07/14 07:25:37;;;;;;;12.68;11.05;;;;;;;21.94;59.99;101335.53;5015599;28;20054;-69
2021/07/14 07:28:03;;;;;;;15.63;12.45;;;;;;;21.92;59.60;101333.81;5015659;28;20539;-69
2021/07/14 07:30:30;;;;;;;17.38;13.95;;;;;;;21.94;59.99;101337.31;5015728;28;20032;-69
2021/07/14 07:32:55;;;;;;;17.70;11.98;;;;;;;21.91;59.63;101327.69;5015531;28;20113;-69
2021/07/14 07:35:20;;;;;;;15.82;12.40;;;;;;;21.91;60.02;101322.41;5015656;28;20108;-69
2021/07/14 07:37:46;;;;;;;15.52;13.00;;;;;;;21.94;60.23;101326.78;4998035;28;20037;-68
2021/07/14 07:40:13;;;;;;;14.43;12.93;;;;;;;21.95;60.28;101325.88;4997823;28;20476;-68
2021/07/14 07:42:39;;;;;;;15.50;12.30;;;;;;;21.93;60.12;101320.66;4981714;28;20056;-69
2021/07/14 07:45:06;;;;;;;16.73;12.82;;;;;;;21.94;60.06;101316.25;4997961;28;20079;-68
2021/07/14 07:47:31;;;;;;;13.85;12.07;;;;;;;21.94;60.05;101310.97;4981515;28;20037;-68
2021/07/14 07:49:56;;;;;;;13.20;11.80;;;;;;;21.94;59.96;101308.34;4983577;28;20030;-69
2021/07/14 07:52:22;;;;;;;12.57;10.95;;;;;;;21.93;59.77;101314.50;5019495;28;20026;-68
2021/07/14 07:54:49;;;;;;;14.45;11.80;;;;;;;21.94;60.17;101322.34;5007604;28;20040;-70
2021/07/14 07:57:15;;;;;;;16.17;12.10;;;;;;;21.91;60.01;101311.00;4998992;28;20033;-71
2021/07/14 07:59:40;;;;;;;17.55;12.85;;;;;;;21.94;59.66;101317.09;5015310;28;20026;-70
2021/07/14 08:02:06;;;;;;;13.48;11.38;;;;;;;21.94;60.11;101314.47;4997716;28;20033;-70
2021/07/14 08:04:32;;;;;;;15.65;11.63;;;;;;;21.91;60.20;101317.16;5015180;28;20375;-69
2021/07/14 08:06:58;;;;;;;13.00;11.60;;;;;;;21.93;59.84;101319.78;4981057;28;20026;-69
2021/07/14 08:09:24;;;;;;;12.73;9.98;;;;;;;21.89;60.09;101305.75;5014967;28;20030;-70
2021/07/14 08:11:49;;;;;;;14.18;10.40;;;;;;;21.94;60.11;101327.63;5014761;28;20030;-70
2021/07/14 08:14:16;;;;;;;15.45;10.70;;;;;;;21.92;60.21;101325.94;4997075;28;20536;-69
2021/07/14 08:16:43;;;;;;;11.57;9.75;;;;;;;21.90;60.41;101322.44;4980692;28;20396;-70
2021/07/14 08:19:09;;;;;;;16.00;10.60;;;;;;;21.93;60.30;101332.94;5014592;28;20468;-70
2021/07/14 08:21:35;;;;;;;17.02;10.98;;;;;;;21.93;60.14;101328.53;5014375;28;20048;-69
2021/07/14 08:24:00;;;;;;;12.57;9.07;;;;;;;21.95;60.18;101336.41;5014611;28;20038;-70
2021/07/14 08:26:25;;;;;;;13.43;10.27;;;;;;;21.94;60.36;101330.25;4980468;28;20139;-69
2021/07/14 08:28:51;;;;;;;10.82;9.45;;;;;;;21.92;60.13;101328.56;4996701;28;20032;-70
2021/07/14 08:31:17;;;;;;;12.70;10.52;;;;;;;21.95;60.29;101341.66;4996698;28;20025;-69
2021/07/14 08:33:43;;;;;;;11.95;9.90;;;;;;;21.92;60.27;101331.19;5014455;28;20072;-70
2021/07/14 08:36:08;;;;;;;11.05;9.15;;;;;;;21.94;60.38;101335.53;5014375;28;20419;-69
2021/07/14 08:38:34;;;;;;;11.55;9.35;;;;;;;21.92;60.11;101332.06;5014217;28;20388;-69
2021/07/14 08:41:00;;;;;;;11.05;9.90;;;;;;;21.94;60.37;101335.53;4996745;28;20034;-69
2021/07/14 08:43:31;;;;;;;11.38;10.18;;;;;;;21.95;60.44;101339.03;4996934;28;20034;-70
2021/07/14 08:45:58;;;;;;;11.75;9.35;;;;;;;21.97;60.19;101339.88;5014334;28;20029;-69
2021/07/14 08:48:24;;;;;;;10.88;9.68;;;;;;;21.94;60.43;101326.78;5014141;28;20487;-69
2021/07/14 08:50:52;;;;;;;13.32;10.20;;;;;;;21.96;60.30;101341.66;5014387;28;20030;-69
2021/07/14 08:53:20;;;;;;;12.30;10.05;;;;;;;21.92;60.25;101334.69;5014565;28;20025;-69
2021/07/14 08:55:47;;;;;;;11.55;9.63;;;;;;;21.93;60.36;101338.22;4997050;28;20468;-69
2021/07/14 08:58:14;;;;;;;11.02;9.35;;;;;;;21.94;60.21;101339.94;4980597;28;20030;-70
2021/07/14 09:00:40;;;;;;;11.77;9.27;;;;;;;21.96;60.10;101346.03;4996344;28;20026;-69
2021/07/14 09:03:06;;;;;;;12.73;10.85;;;;;;;21.91;60.08;101335.59;4996614;28;20026;-68
2021/07/14 09:05:31;;;;;;;12.65;11.15;;;;;;;21.72;60.57;101337.53;4980439;28;20029;-69
2021/07/14 09:07:57;;;;;;;15.20;10.23;;;;;;;21.62;60.88;101332.38;4980329;28;20049;-69
2021/07/14 09:10:23;;;;;;;14.05;11.07;;;;;;;21.73;60.89;101339.28;4996455;28;20041;-72
2021/07/14 09:12:49;;;;;;;14.02;11.23;;;;;;;21.80;60.62;101336.59;4981171;28;20464;-73
2021/07/14 09:15:19;;;;;;;14.35;10.90;;;;;;;21.87;60.44;101333.88;4998279;28;20032;-73
2021/07/14 09:17:50;;;;;;;14.63;10.27;;;;;;;21.90;60.34;101327.69;4998473;28;20034;-70
2021/07/14 09:20:19;;;;;;;13.38;10.02;;;;;;;21.98;60.12;101323.19;4997782;28;20030;-69
2021/07/14 09:22:46;;;;;;;12.73;10.70;;;;;;;22.00;60.09;101324.09;4997170;28;20033;-71
2021/07/14 09:25:17;;;;;;;12.77;9.82;;;;;;;21.99;60.12;101312.69;4977327;28;20058;-69
2021/07/14 09:27:56;;;;;;;16.35;11.43;;;;;;;22.04;59.88;101318.78;4994542;28;20026;-69
2021/07/14 09:30:23;;;;;;;12.70;10.57;;;;;;;22.08;59.93;101306.44;4994076;28;20025;-69
2021/07/14 09:32:54;;;;;;;11.90;9.15;;;;;;;22.10;59.92;101310.78;4994695;28;20030;-69
2021/07/14 09:35:25;;;;;;;12.18;10.05;;;;;;;22.08;59.82;101304.66;4996765;28;20125;-71
2021/07/14 09:37:51;;;;;;;14.73;11.43;;;;;;;22.12;59.70;101309.91;4998351;28;20141;-69
2021/07/14 09:40:18;;;;;;;13.82;10.73;;;;;;;22.12;59.86;101302.88;4996686;28;20030;-68
2021/07/14 09:42:58;;;;;;;14.00;11.05;;;;;;;22.13;59.94;101294.09;4996700;28;20034;-69
2021/07/14 09:45:45;;;;;;;12.07;9.77;;;;;;;22.13;59.98;101299.34;4996696;28;20045;-68
2021/07/14 09:48:31;;;;;;;13.85;10.05;;;;;;;22.13;59.95;101295.84;4997793;28;20023;-69
2021/07/14 09:51:00;;;;;;;16.63;12.20;;;;;;;22.10;60.00;101295.00;4983292;28;20033;-70
2021/07/14 09:53:31;;;;;;;13.88;11.02;;;;;;;22.13;59.95;101309.88;4998021;28;20026;-69
2021/07/14 09:56:00;;;;;;;12.40;10.15;;;;;;;22.14;60.04;101308.13;4996438;28;20065;-69
2021/07/14 09:58:28;;;;;;;12.27;10.40;;;;;;;22.10;60.04;101309.91;4997655;28;20102;-69
2021/07/14 10:00:59;;;;;;;13.07;10.23;;;;;;;22.12;59.99;101313.41;4997480;28;20034;-69
2021/07/14 10:03:37;;;;;;;11.55;10.35;;;;;;;22.16;60.01;101316.88;4996325;28;20026;-69
2021/07/14 10:06:14;;;;;;;11.35;9.52;;;;;;;22.13;59.91;101314.28;4997403;28;20023;-69
2021/07/14 10:08:41;;;;;;;13.68;10.55;;;;;;;22.14;60.06;101324.81;4997902;28;20038;-70
2021/07/14 10:11:27;;;;;;;12.10;10.48;;;;;;;22.13;60.08;101322.19;4997487;28;20022;-70
2021/07/14 10:14:18;;;;;;;11.73;10.32;;;;;;;22.15;60.04;101320.41;4997684;28;20037;-69
2021/07/14 10:16:44;;;;;;;11.30;10.13;;;;;;;22.13;60.20;101312.53;4994995;28;20034;-70
2021/07/14 10:19:14;;;;;;;10.65;9.50;;;;;;;22.16;59.90;101324.78;4995952;28;20034;-69
2021/07/14 10:21:40;;;;;;;12.85;11.23;;;;;;;22.16;59.99;101330.06;4997050;28;20045;-69
2021/07/14 10:24:10;;;;;;;12.20;10.10;;;;;;;22.14;59.95;101335.34;4997045;28;20030;-69
2021/07/14 10:26:38;;;;;;;14.65;12.23;;;;;;;22.16;59.99;101338.84;5013418;28;20519;-70
2021/07/14 10:29:04;;;;;;;12.00;9.40;;;;;;;22.16;60.07;101346.75;4983136;28;20038;-67
2021/07/14 10:31:30;;;;;;;10.60;9.43;;;;;;;22.15;59.93;101338.84;5016658;28;20044;-69
2021/07/14 10:33:56;;;;;;;11.77;10.40;;;;;;;22.15;60.02;101331.81;5016500;28;20028;-69
2021/07/14 10:36:33;;;;;;;13.40;10.65;;;;;;;22.15;59.87;101333.56;5016582;28;20026;-69
2021/07/14 10:39:01;;;;;;;11.85;10.60;;;;;;;22.17;59.96;101334.44;4998973;28;20037;-70
2021/07/14 10:41:29;;;;;;;12.27;10.38;;;;;;;22.17;60.00;101340.59;5016542;28;20084;-70
2021/07/14 10:43:55;;;;;;;10.93;9.30;;;;;;;22.16;59.99;101340.59;5016432;28;20109;-69
2021/07/14 10:46:23;;;;;;;11.63;9.93;;;;;;;22.17;59.89;101340.59;4998972;28;20479;-69
2021/07/14 10:48:51;;;;;;;12.20;10.57;;;;;;;22.14;59.85;101337.97;5016522;28;20026;-71
2021/07/14 10:51:17;;;;;;;10.73;9.63;;;;;;;22.15;59.98;101334.44;4998688;28;20030;-70
2021/07/14 10:53:44;;;;;;;11.75;9.85;;;;;;;22.18;59.82;101334.41;5016309;28;20468;-69
2021/07/14 10:56:13;;;;;;;11.45;9.73;;;;;;;22.18;59.95;101331.78;4999055;28;20040;-69
2021/07/14 10:58:40;;;;;;;11.23;9.93;;;;;;;22.18;59.80;101331.78;5016519;28;20136;-70
2021/07/14 11:01:06;;;;;;;11.73;9.93;;;;;;;22.15;59.89;101325.69;5016459;28;20079;-69
2021/07/14 11:03:31;;;;;;;10.68;9.35;;;;;;;22.18;60.04;101339.69;5016354;28;20030;-69
2021/07/14 11:05:57;;;;;;;11.43;9.20;;;;;;;22.16;59.95;101344.09;5016306;28;20033;-69
2021/07/14 11:08:47;;;;;;;15.57;11.02;;;;;;;21.89;60.36;101331.22;4999188;28;20361;-70
2021/07/14 11:11:18;;;;;;;14.43;11.27;;;;;;;21.73;61.18;101336.66;5000076;28;20018;-70
2021/07/14 11:13:45;;;;;;;16.75;11.40;;;;;;;21.71;61.17;101338.41;5016920;28;20057;-71
2021/07/14 11:16:24;;;;;;;12.48;11.15;;;;;;;21.64;61.30;101336.75;5018066;28;20083;-72
2021/07/14 11:19:03;;;;;;;16.35;11.75;;;;;;;21.54;61.63;101327.22;4999061;28;20124;-71
2021/07/14 11:21:49;;;;;;;16.80;12.95;;;;;;;21.52;61.50;101328.97;4998958;28;20307;-70
2021/07/14 11:24:41;;;;;;;15.00;12.73;;;;;;;21.55;61.56;101336.81;5022893;28;20030;-72
2021/07/14 11:27:22;;;;;;;18.05;11.18;;;;;;;21.50;61.82;101343.03;5016918;28;20030;-72